Aérodrome :







RETROUVEZ-NOUS SUR...

 
LOGIN :

S'inscrire | Disclaimer

   EN    FR    IT 

 









Légende :    VFR   VFR Marginal   IFR   IFR Intensif   IFR Très Intensif
Visi : 
Plafond : 
>= 8 km
>= 3000ft
5 à 8 km
1000 à 3000 ft
1500m à 5 km
500 à 1000 ft
800 à 1500m
200 à 500 ft
< 800m
< 200 ft
Symboles :   Orages  Brouillard  Fortes neiges  Fortes précipitations  Vent > 20 kt






- Altitude de l'aérodrome : 489 ft


KHUL - Houlton International

DERNIER METAR :
  • 201629Z AUTO 34005KT 10SM OVC003 00/M02 A2991 RMK AO2 T00001017

METARs EXPIRÉS :
  • 201553Z AUTO 34007KT 9SM OVC002 M01/M02 A2991 RMK AO2 SLP135 T10061017
  • 201534Z AUTO 36008KT 10SM OVC002 M01/M02 A2992 RMK AO2 T10061017
  • 201453Z AUTO 01008KT 10SM OVC003 00/M02 A2992 RMK AO2 SLP140 T00001017 58003

TAF KHUL
Valide du 20 à 16h jusqu'au 21 à 12h UTC


201612Z 2016/2112 03007KT P6SM OVC004
FM201800 36008KT P6SM OVC020
FM202100 36005KT P6SM BKN050
FM210400 35008KT P6SM BKN035



MET'MAP, la Météo Aéronautique d'un coup d'oeil ! - Copyright ORBIFLY Décembre 2007 - Disclaimer

ORBIFLY MET'MAP TEAM :

Programmation & Développement : Alexandra Zaïnal
Conception & Développement : Baudouin d'Aumeries
Co-Programmation & Développement : Marc-Olivier Méhu
Soutien technique & logistique : Manuel Goepfert

Contact : metmap@orbifly.com




SOURCES & CREDITS :

   NOAA